sensor_id;sensor_type;location;lat;lon;timestamp;P1;durP1;ratioP1;P2;durP2;ratioP2
62256;SDS011;48240;52.962;5.790;2023-12-28T04:48:41;4.18;;;1.10;;
62256;SDS011;48240;52.962;5.790;2023-12-28T04:51:07;5.07;;;1.48;;
62256;SDS011;48240;52.962;5.790;2023-12-28T04:53:33;5.57;;;1.50;;
62256;SDS011;48240;52.962;5.790;2023-12-28T04:56:00;7.93;;;1.15;;
62256;SDS011;48240;52.962;5.790;2023-12-28T04:58:26;5.07;;;1.20;;
62256;SDS011;48240;52.962;5.790;2023-12-28T05:00:52;4.55;;;1.15;;
62256;SDS011;48240;52.962;5.790;2023-12-28T05:03:18;6.25;;;1.60;;
62256;SDS011;48240;52.962;5.790;2023-12-28T05:05:44;4.93;;;1.50;;
62256;SDS011;48240;52.962;5.790;2023-12-28T05:08:10;5.88;;;1.30;;
62256;SDS011;48240;52.962;5.790;2023-12-28T05:10:36;5.13;;;1.20;;
62256;SDS011;48240;52.962;5.790;2023-12-28T05:13:02;5.00;;;1.33;;
62256;SDS011;48240;52.962;5.790;2023-12-28T05:15:28;6.50;;;1.52;;
62256;SDS011;48240;52.962;5.790;2023-12-28T05:17:55;7.10;;;1.63;;
62256;SDS011;48240;52.962;5.790;2023-12-28T05:20:21;7.32;;;1.40;;
62256;SDS011;48240;52.962;5.790;2023-12-28T05:22:47;11.50;;;1.92;;
62256;SDS011;48240;52.962;5.790;2023-12-28T05:25:13;4.45;;;1.45;;
62256;SDS011;48240;52.962;5.790;2023-12-28T05:27:39;8.10;;;1.63;;
62256;SDS011;48240;52.962;5.790;2023-12-28T05:30:07;6.45;;;1.52;;
62256;SDS011;48240;52.962;5.790;2023-12-28T05:32:34;4.70;;;1.38;;
62256;SDS011;48240;52.962;5.790;2023-12-28T05:35:00;8.98;;;1.70;;
62256;SDS011;48240;52.962;5.790;2023-12-28T05:37:28;6.60;;;1.63;;
62256;SDS011;48240;52.962;5.790;2023-12-28T05:39:54;4.32;;;1.27;;
62256;SDS011;48240;52.962;5.790;2023-12-28T05:42:20;5.20;;;1.40;;
62256;SDS011;48240;52.962;5.790;2023-12-28T05:44:46;4.78;;;1.65;;
62256;SDS011;48240;52.962;5.790;2023-12-28T05:47:12;6.45;;;1.60;;
62256;SDS011;48240;52.962;5.790;2023-12-28T05:49:40;4.90;;;1.40;;
62256;SDS011;48240;52.962;5.790;2023-12-28T05:52:07;4.18;;;1.45;;
62256;SDS011;48240;52.962;5.790;2023-12-28T05:54:33;3.97;;;1.30;;
62256;SDS011;48240;52.962;5.790;2023-12-28T05:56:59;3.80;;;1.15;;
62256;SDS011;48240;52.962;5.790;2023-12-28T05:59:25;5.63;;;1.70;;
62256;SDS011;48240;52.962;5.790;2023-12-28T06:01:52;4.30;;;1.20;;
62256;SDS011;48240;52.962;5.790;2023-12-28T06:04:18;6.57;;;1.85;;
62256;SDS011;48240;52.962;5.790;2023-12-28T06:06:44;6.05;;;1.40;;
62256;SDS011;48240;52.962;5.790;2023-12-28T06:09:10;8.73;;;1.60;;
62256;SDS011;48240;52.962;5.790;2023-12-28T06:11:37;7.13;;;1.40;;
62256;SDS011;48240;52.962;5.790;2023-12-28T06:14:03;8.43;;;1.35;;
62256;SDS011;48240;52.962;5.790;2023-12-28T06:16:29;5.47;;;1.33;;
62256;SDS011;48240;52.962;5.790;2023-12-28T06:18:58;6.28;;;1.40;;
62256;SDS011;48240;52.962;5.790;2023-12-28T06:21:24;7.88;;;1.60;;
62256;SDS011;48240;52.962;5.790;2023-12-28T06:23:50;6.45;;;1.10;;
62256;SDS011;48240;52.962;5.790;2023-12-28T06:26:16;7.97;;;1.55;;
62256;SDS011;48240;52.962;5.790;2023-12-28T06:28:42;12.23;;;1.75;;
62256;SDS011;48240;52.962;5.790;2023-12-28T06:31:08;8.82;;;1.50;;
62256;SDS011;48240;52.962;5.790;2023-12-28T06:33:34;7.03;;;1.80;;
62256;SDS011;48240;52.962;5.790;2023-12-28T06:36:06;8.02;;;1.60;;
62256;SDS011;48240;52.962;5.790;2023-12-28T06:38:32;6.07;;;1.20;;
62256;SDS011;48240;52.962;5.790;2023-12-28T06:40:59;8.50;;;2.10;;
62256;SDS011;48240;52.962;5.790;2023-12-28T06:43:25;8.40;;;1.90;;
62256;SDS011;48240;52.962;5.790;2023-12-28T06:45:51;6.32;;;1.83;;
62256;SDS011;48240;52.962;5.790;2023-12-28T06:48:17;10.68;;;1.95;;
62256;SDS011;48240;52.962;5.790;2023-12-28T06:50:44;9.90;;;1.92;;
62256;SDS011;48240;52.962;5.790;2023-12-28T06:53:10;6.05;;;1.42;;
62256;SDS011;48240;52.962;5.790;2023-12-28T06:55:36;7.80;;;1.67;;
62256;SDS011;48240;52.962;5.790;2023-12-28T06:58:02;11.90;;;1.92;;
62256;SDS011;48240;52.962;5.790;2023-12-28T07:00:28;10.18;;;1.90;;
62256;SDS011;48240;52.962;5.790;2023-12-28T07:02:54;7.97;;;1.60;;
62256;SDS011;48240;52.962;5.790;2023-12-28T07:05:20;9.32;;;1.83;;
62256;SDS011;48240;52.962;5.790;2023-12-28T07:07:46;9.65;;;2.00;;
62256;SDS011;48240;52.962;5.790;2023-12-28T07:10:12;5.00;;;1.27;;
62256;SDS011;48240;52.962;5.790;2023-12-28T07:12:38;5.07;;;1.40;;
62256;SDS011;48240;52.962;5.790;2023-12-28T07:15:04;11.20;;;2.00;;
62256;SDS011;48240;52.962;5.790;2023-12-28T07:17:30;8.48;;;1.88;;
62256;SDS011;48240;52.962;5.790;2023-12-28T07:19:56;9.00;;;1.83;;
62256;SDS011;48240;52.962;5.790;2023-12-28T07:22:22;12.10;;;2.20;;
62256;SDS011;48240;52.962;5.790;2023-12-28T07:24:48;7.20;;;1.75;;
62256;SDS011;48240;52.962;5.790;2023-12-28T07:27:15;9.10;;;1.52;;
62256;SDS011;48240;52.962;5.790;2023-12-28T07:29:41;11.50;;;2.30;;
62256;SDS011;48240;52.962;5.790;2023-12-28T07:32:07;16.00;;;2.22;;
62256;SDS011;48240;52.962;5.790;2023-12-28T07:34:34;7.65;;;1.90;;
62256;SDS011;48240;52.962;5.790;2023-12-28T07:37:00;9.55;;;1.70;;
62256;SDS011;48240;52.962;5.790;2023-12-28T07:39:27;11.68;;;2.40;;
62256;SDS011;48240;52.962;5.790;2023-12-28T07:41:53;12.32;;;2.08;;
62256;SDS011;48240;52.962;5.790;2023-12-28T07:44:19;10.38;;;2.05;;
62256;SDS011;48240;52.962;5.790;2023-12-28T07:46:45;13.65;;;2.28;;
62256;SDS011;48240;52.962;5.790;2023-12-28T07:49:11;10.30;;;2.30;;
62256;SDS011;48240;52.962;5.790;2023-12-28T07:51:37;17.23;;;2.95;;
62256;SDS011;48240;52.962;5.790;2023-12-28T07:54:03;12.07;;;2.17;;
62256;SDS011;48240;52.962;5.790;2023-12-28T07:56:29;13.43;;;2.38;;
62256;SDS011;48240;52.962;5.790;2023-12-28T07:58:55;13.27;;;2.38;;
62256;SDS011;48240;52.962;5.790;2023-12-28T08:01:21;14.13;;;2.47;;
62256;SDS011;48240;52.962;5.790;2023-12-28T08:03:48;10.10;;;2.15;;
62256;SDS011;48240;52.962;5.790;2023-12-28T08:06:14;12.23;;;2.17;;
62256;SDS011;48240;52.962;5.790;2023-12-28T08:08:40;15.90;;;2.53;;
62256;SDS011;48240;52.962;5.790;2023-12-28T08:11:06;12.52;;;2.70;;
62256;SDS011;48240;52.962;5.790;2023-12-28T08:13:32;12.93;;;2.97;;
62256;SDS011;48240;52.962;5.790;2023-12-28T08:15:58;8.98;;;2.22;;
62256;SDS011;48240;52.962;5.790;2023-12-28T08:18:24;14.85;;;2.85;;
62256;SDS011;48240;52.962;5.790;2023-12-28T08:20:50;15.13;;;2.72;;
62256;SDS011;48240;52.962;5.790;2023-12-28T08:23:17;11.93;;;3.00;;
62256;SDS011;48240;52.962;5.790;2023-12-28T08:25:43;14.80;;;2.40;;
62256;SDS011;48240;52.962;5.790;2023-12-28T08:28:09;13.43;;;2.45;;
62256;SDS011;48240;52.962;5.790;2023-12-28T08:30:35;12.55;;;2.40;;
62256;SDS011;48240;52.962;5.790;2023-12-28T08:33:01;14.40;;;2.85;;
62256;SDS011;48240;52.962;5.790;2023-12-28T08:35:27;16.02;;;2.65;;
62256;SDS011;48240;52.962;5.790;2023-12-28T08:37:53;12.25;;;2.60;;
62256;SDS011;48240;52.962;5.790;2023-12-28T08:40:19;11.52;;;2.70;;
62256;SDS011;48240;52.962;5.790;2023-12-28T08:42:45;16.05;;;3.28;;
62256;SDS011;48240;52.962;5.790;2023-12-28T08:45:11;14.70;;;3.17;;
62256;SDS011;48240;52.962;5.790;2023-12-28T08:47:37;12.70;;;2.70;;
62256;SDS011;48240;52.962;5.790;2023-12-28T08:50:04;14.77;;;2.83;;
62256;SDS011;48240;52.962;5.790;2023-12-28T08:52:30;13.50;;;3.00;;
62256;SDS011;48240;52.962;5.790;2023-12-28T08:54:57;15.73;;;2.80;;
62256;SDS011;48240;52.962;5.790;2023-12-28T08:57:24;13.32;;;3.13;;
62256;SDS011;48240;52.962;5.790;2023-12-28T08:59:50;10.32;;;2.65;;
62256;SDS011;48240;52.962;5.790;2023-12-28T09:02:16;15.52;;;2.70;;
62256;SDS011;48240;52.962;5.790;2023-12-28T09:04:42;15.27;;;2.70;;
62256;SDS011;48240;52.962;5.790;2023-12-28T09:07:08;12.65;;;2.90;;
62256;SDS011;48240;52.962;5.790;2023-12-28T09:09:34;15.18;;;2.85;;
62256;SDS011;48240;52.962;5.790;2023-12-28T09:12:00;16.05;;;3.38;;
62256;SDS011;48240;52.962;5.790;2023-12-28T09:14:27;14.65;;;2.65;;
62256;SDS011;48240;52.962;5.790;2023-12-28T09:16:53;14.68;;;3.33;;
62256;SDS011;48240;52.962;5.790;2023-12-28T09:19:19;15.75;;;2.90;;
62256;SDS011;48240;52.962;5.790;2023-12-28T09:21:45;12.55;;;2.60;;
62256;SDS011;48240;52.962;5.790;2023-12-28T09:24:11;14.05;;;2.90;;
62256;SDS011;48240;52.962;5.790;2023-12-28T09:26:37;13.18;;;2.40;;
62256;SDS011;48240;52.962;5.790;2023-12-28T09:29:03;17.23;;;2.83;;
62256;SDS011;48240;52.962;5.790;2023-12-28T09:31:29;12.38;;;2.78;;
62256;SDS011;48240;52.962;5.790;2023-12-28T09:33:55;11.73;;;2.65;;
62256;SDS011;48240;52.962;5.790;2023-12-28T09:36:21;11.23;;;2.70;;
62256;SDS011;48240;52.962;5.790;2023-12-28T09:38:47;13.02;;;3.13;;
62256;SDS011;48240;52.962;5.790;2023-12-28T09:41:14;14.27;;;2.40;;
62256;SDS011;48240;52.962;5.790;2023-12-28T09:46:16;13.38;;;2.13;;
62256;SDS011;48240;52.962;5.790;2023-12-28T09:48:42;11.18;;;2.13;;
62256;SDS011;48240;52.962;5.790;2023-12-28T09:51:08;12.80;;;2.40;;
62256;SDS011;48240;52.962;5.790;2023-12-28T09:53:36;13.68;;;2.67;;
62256;SDS011;48240;52.962;5.790;2023-12-28T09:56:02;15.30;;;2.35;;
62256;SDS011;48240;52.962;5.790;2023-12-28T09:58:28;15.25;;;2.83;;
62256;SDS011;48240;52.962;5.790;2023-12-28T10:00:57;13.48;;;2.95;;
62256;SDS011;48240;52.962;5.790;2023-12-28T10:03:23;14.63;;;2.65;;
62256;SDS011;48240;52.962;5.790;2023-12-28T10:05:50;10.45;;;2.15;;
62256;SDS011;48240;52.962;5.790;2023-12-28T10:08:16;11.95;;;2.25;;
62256;SDS011;48240;52.962;5.790;2023-12-28T10:10:42;11.82;;;2.47;;
62256;SDS011;48240;52.962;5.790;2023-12-28T10:13:09;11.75;;;2.70;;
62256;SDS011;48240;52.962;5.790;2023-12-28T10:15:35;11.55;;;2.65;;
62256;SDS011;48240;52.962;5.790;2023-12-28T10:18:03;11.50;;;2.65;;
62256;SDS011;48240;52.962;5.790;2023-12-28T10:20:29;11.80;;;2.15;;
62256;SDS011;48240;52.962;5.790;2023-12-28T10:22:55;12.48;;;2.40;;
62256;SDS011;48240;52.962;5.790;2023-12-28T10:25:22;9.57;;;1.98;;
62256;SDS011;48240;52.962;5.790;2023-12-28T10:27:52;13.00;;;2.08;;
62256;SDS011;48240;52.962;5.790;2023-12-28T10:30:19;9.93;;;2.17;;
62256;SDS011;48240;52.962;5.790;2023-12-28T10:32:45;15.70;;;2.53;;
62256;SDS011;48240;52.962;5.790;2023-12-28T10:35:11;10.85;;;2.20;;
62256;SDS011;48240;52.962;5.790;2023-12-28T10:37:41;13.30;;;2.53;;
62256;SDS011;48240;52.962;5.790;2023-12-28T10:40:07;11.23;;;2.38;;
62256;SDS011;48240;52.962;5.790;2023-12-28T10:42:36;9.82;;;2.40;;
62256;SDS011;48240;52.962;5.790;2023-12-28T10:45:04;11.13;;;2.03;;
62256;SDS011;48240;52.962;5.790;2023-12-28T10:47:37;10.68;;;1.95;;
62256;SDS011;48240;52.962;5.790;2023-12-28T10:50:04;11.27;;;2.33;;
62256;SDS011;48240;52.962;5.790;2023-12-28T10:52:31;16.48;;;2.38;;
62256;SDS011;48240;52.962;5.790;2023-12-28T10:57:33;11.40;;;2.45;;
62256;SDS011;48240;52.962;5.790;2023-12-28T11:00:04;12.10;;;2.15;;
62256;SDS011;48240;52.962;5.790;2023-12-28T11:02:38;9.95;;;2.05;;
62256;SDS011;48240;52.962;5.790;2023-12-28T11:05:06;8.93;;;1.88;;
62256;SDS011;48240;52.962;5.790;2023-12-28T11:07:33;13.75;;;2.65;;
62256;SDS011;48240;52.962;5.790;2023-12-28T11:10:00;11.50;;;2.67;;
62256;SDS011;48240;52.962;5.790;2023-12-28T11:12:27;12.13;;;2.13;;
62256;SDS011;48240;52.962;5.790;2023-12-28T11:14:53;11.68;;;2.63;;
62256;SDS011;48240;52.962;5.790;2023-12-28T11:17:20;10.95;;;1.83;;
62256;SDS011;48240;52.962;5.790;2023-12-28T11:19:46;13.73;;;2.25;;
62256;SDS011;48240;52.962;5.790;2023-12-28T11:22:13;8.40;;;1.95;;
62256;SDS011;48240;52.962;5.790;2023-12-28T11:24:39;11.55;;;1.95;;
62256;SDS011;48240;52.962;5.790;2023-12-28T11:27:05;11.18;;;2.03;;
62256;SDS011;48240;52.962;5.790;2023-12-28T11:29:31;11.70;;;2.45;;
62256;SDS011;48240;52.962;5.790;2023-12-28T11:31:58;13.65;;;2.42;;
62256;SDS011;48240;52.962;5.790;2023-12-28T11:34:27;8.82;;;1.73;;
62256;SDS011;48240;52.962;5.790;2023-12-28T11:36:54;12.82;;;2.08;;
62256;SDS011;48240;52.962;5.790;2023-12-28T11:41:58;12.60;;;2.13;;
62256;SDS011;48240;52.962;5.790;2023-12-28T11:44:26;10.77;;;2.15;;
62256;SDS011;48240;52.962;5.790;2023-12-28T11:46:52;15.18;;;2.63;;
62256;SDS011;48240;52.962;5.790;2023-12-28T11:49:24;10.10;;;2.33;;
62256;SDS011;48240;52.962;5.790;2023-12-28T11:51:54;13.75;;;2.45;;
62256;SDS011;48240;52.962;5.790;2023-12-28T11:54:20;13.35;;;2.28;;
62256;SDS011;48240;52.962;5.790;2023-12-28T11:56:46;8.57;;;1.67;;
62256;SDS011;48240;52.962;5.790;2023-12-28T11:59:12;9.80;;;1.92;;
62256;SDS011;48240;52.962;5.790;2023-12-28T12:01:38;12.07;;;2.20;;
62256;SDS011;48240;52.962;5.790;2023-12-28T12:04:06;10.88;;;2.13;;
62256;SDS011;48240;52.962;5.790;2023-12-28T12:06:32;11.02;;;2.58;;
62256;SDS011;48240;52.962;5.790;2023-12-28T12:08:58;14.68;;;2.50;;
62256;SDS011;48240;52.962;5.790;2023-12-28T12:11:24;10.38;;;2.05;;
62256;SDS011;48240;52.962;5.790;2023-12-28T12:13:51;8.60;;;2.22;;
62256;SDS011;48240;52.962;5.790;2023-12-28T12:16:17;10.60;;;2.17;;
62256;SDS011;48240;52.962;5.790;2023-12-28T12:18:43;13.43;;;2.60;;
62256;SDS011;48240;52.962;5.790;2023-12-28T12:21:09;11.43;;;2.33;;
62256;SDS011;48240;52.962;5.790;2023-12-28T12:23:36;10.43;;;1.98;;
62256;SDS011;48240;52.962;5.790;2023-12-28T12:26:06;16.13;;;2.83;;
62256;SDS011;48240;52.962;5.790;2023-12-28T12:28:32;11.20;;;2.05;;
62256;SDS011;48240;52.962;5.790;2023-12-28T12:30:58;12.35;;;2.47;;
62256;SDS011;48240;52.962;5.790;2023-12-28T12:33:28;12.00;;;2.67;;
62256;SDS011;48240;52.962;5.790;2023-12-28T12:35:54;10.35;;;2.35;;
62256;SDS011;48240;52.962;5.790;2023-12-28T12:38:21;11.38;;;2.60;;
62256;SDS011;48240;52.962;5.790;2023-12-28T12:40:50;13.45;;;2.50;;
62256;SDS011;48240;52.962;5.790;2023-12-28T12:43:16;9.70;;;1.88;;
62256;SDS011;48240;52.962;5.790;2023-12-28T12:45:44;10.38;;;2.00;;
62256;SDS011;48240;52.962;5.790;2023-12-28T12:48:11;9.45;;;2.13;;
62256;SDS011;48240;52.962;5.790;2023-12-28T12:50:37;12.68;;;2.65;;
62256;SDS011;48240;52.962;5.790;2023-12-28T12:53:07;10.40;;;2.03;;
62256;SDS011;48240;52.962;5.790;2023-12-28T12:55:35;11.35;;;2.05;;
62256;SDS011;48240;52.962;5.790;2023-12-28T12:58:04;11.98;;;1.88;;
62256;SDS011;48240;52.962;5.790;2023-12-28T13:00:30;15.25;;;2.90;;
62256;SDS011;48240;52.962;5.790;2023-12-28T13:02:59;14.98;;;2.45;;
62256;SDS011;48240;52.962;5.790;2023-12-28T13:05:25;15.20;;;2.40;;
62256;SDS011;48240;52.962;5.790;2023-12-28T13:07:51;13.40;;;2.17;;
62256;SDS011;48240;52.962;5.790;2023-12-28T13:10:17;14.98;;;2.72;;
62256;SDS011;48240;52.962;5.790;2023-12-28T13:12:43;11.18;;;2.55;;
62256;SDS011;48240;52.962;5.790;2023-12-28T13:15:10;12.10;;;2.33;;
62256;SDS011;48240;52.962;5.790;2023-12-28T13:17:36;8.15;;;2.10;;
62256;SDS011;48240;52.962;5.790;2023-12-28T13:20:03;8.88;;;2.13;;
62256;SDS011;48240;52.962;5.790;2023-12-28T13:22:31;9.98;;;2.00;;
62256;SDS011;48240;52.962;5.790;2023-12-28T13:24:57;13.07;;;2.30;;
62256;SDS011;48240;52.962;5.790;2023-12-28T13:27:23;10.10;;;2.45;;
62256;SDS011;48240;52.962;5.790;2023-12-28T13:29:49;13.13;;;2.65;;
62256;SDS011;48240;52.962;5.790;2023-12-28T13:32:15;12.63;;;2.25;;
62256;SDS011;48240;52.962;5.790;2023-12-28T13:34:41;8.95;;;2.00;;
62256;SDS011;48240;52.962;5.790;2023-12-28T13:37:07;11.93;;;2.13;;
62256;SDS011;48240;52.962;5.790;2023-12-28T13:39:33;11.50;;;2.20;;
62256;SDS011;48240;52.962;5.790;2023-12-28T13:42:04;10.68;;;2.35;;
62256;SDS011;48240;52.962;5.790;2023-12-28T13:44:32;11.70;;;2.33;;
62256;SDS011;48240;52.962;5.790;2023-12-28T13:46:58;11.20;;;2.20;;
62256;SDS011;48240;52.962;5.790;2023-12-28T13:49:24;13.60;;;2.00;;
62256;SDS011;48240;52.962;5.790;2023-12-28T13:51:51;8.25;;;1.88;;
62256;SDS011;48240;52.962;5.790;2023-12-28T13:54:17;16.35;;;3.08;;
62256;SDS011;48240;52.962;5.790;2023-12-28T13:56:46;14.68;;;2.45;;
62256;SDS011;48240;52.962;5.790;2023-12-28T13:59:13;13.23;;;2.72;;
62256;SDS011;48240;52.962;5.790;2023-12-28T14:01:39;12.25;;;2.10;;
62256;SDS011;48240;52.962;5.790;2023-12-28T14:04:05;14.93;;;2.58;;
62256;SDS011;48240;52.962;5.790;2023-12-28T14:06:31;14.15;;;2.33;;
62256;SDS011;48240;52.962;5.790;2023-12-28T14:08:57;10.98;;;2.13;;
62256;SDS011;48240;52.962;5.790;2023-12-28T14:11:24;11.55;;;2.17;;
62256;SDS011;48240;52.962;5.790;2023-12-28T14:13:50;12.43;;;2.25;;
62256;SDS011;48240;52.962;5.790;2023-12-28T14:16:16;10.55;;;2.00;;
62256;SDS011;48240;52.962;5.790;2023-12-28T14:18:42;7.68;;;1.98;;
62256;SDS011;48240;52.962;5.790;2023-12-28T14:21:09;7.60;;;1.92;;
62256;SDS011;48240;52.962;5.790;2023-12-28T14:23:35;13.07;;;2.63;;
62256;SDS011;48240;52.962;5.790;2023-12-28T14:26:13;8.38;;;2.08;;
62256;SDS011;48240;52.962;5.790;2023-12-28T14:28:44;12.23;;;2.45;;
62256;SDS011;48240;52.962;5.790;2023-12-28T14:31:10;12.00;;;2.08;;
62256;SDS011;48240;52.962;5.790;2023-12-28T14:33:37;10.18;;;1.77;;
62256;SDS011;48240;52.962;5.790;2023-12-28T14:36:05;13.15;;;2.25;;
62256;SDS011;48240;52.962;5.790;2023-12-28T14:38:35;12.00;;;1.88;;
62256;SDS011;48240;52.962;5.790;2023-12-28T14:41:01;12.77;;;2.35;;
62256;SDS011;48240;52.962;5.790;2023-12-28T14:43:27;8.13;;;2.35;;
62256;SDS011;48240;52.962;5.790;2023-12-28T14:45:53;10.25;;;2.38;;
62256;SDS011;48240;52.962;5.790;2023-12-28T14:48:19;8.95;;;1.80;;
62256;SDS011;48240;52.962;5.790;2023-12-28T14:50:45;7.75;;;1.90;;
62256;SDS011;48240;52.962;5.790;2023-12-28T14:53:12;12.52;;;2.63;;
62256;SDS011;48240;52.962;5.790;2023-12-28T14:55:38;12.77;;;2.00;;
62256;SDS011;48240;52.962;5.790;2023-12-28T14:58:04;10.40;;;2.25;;
62256;SDS011;48240;52.962;5.790;2023-12-28T15:00:30;11.23;;;2.30;;
62256;SDS011;48240;52.962;5.790;2023-12-28T15:02:56;10.52;;;2.17;;
62256;SDS011;48240;52.962;5.790;2023-12-28T15:05:22;11.30;;;2.20;;
62256;SDS011;48240;52.962;5.790;2023-12-28T15:07:48;9.75;;;2.03;;
62256;SDS011;48240;52.962;5.790;2023-12-28T15:10:14;8.05;;;2.05;;
62256;SDS011;48240;52.962;5.790;2023-12-28T15:12:41;11.30;;;2.45;;
62256;SDS011;48240;52.962;5.790;2023-12-28T15:15:07;13.45;;;2.42;;
62256;SDS011;48240;52.962;5.790;2023-12-28T15:17:35;13.18;;;1.80;;
62256;SDS011;48240;52.962;5.790;2023-12-28T15:20:01;9.38;;;2.10;;
62256;SDS011;48240;52.962;5.790;2023-12-28T15:22:27;12.02;;;2.08;;
62256;SDS011;48240;52.962;5.790;2023-12-28T15:24:53;10.95;;;2.38;;
62256;SDS011;48240;52.962;5.790;2023-12-28T15:27:20;9.35;;;2.20;;
62256;SDS011;48240;52.962;5.790;2023-12-28T15:29:46;7.55;;;2.08;;
62256;SDS011;48240;52.962;5.790;2023-12-28T15:32:12;7.22;;;1.88;;
62256;SDS011;48240;52.962;5.790;2023-12-28T15:34:38;9.43;;;1.63;;
62256;SDS011;48240;52.962;5.790;2023-12-28T15:37:04;11.82;;;2.15;;
62256;SDS011;48240;52.962;5.790;2023-12-28T15:39:30;8.60;;;2.20;;
62256;SDS011;48240;52.962;5.790;2023-12-28T15:41:56;6.47;;;1.60;;
62256;SDS011;48240;52.962;5.790;2023-12-28T15:44:22;10.27;;;1.98;;
62256;SDS011;48240;52.962;5.790;2023-12-28T15:46:48;10.57;;;1.95;;
62256;SDS011;48240;52.962;5.790;2023-12-28T15:49:14;7.43;;;1.77;;
62256;SDS011;48240;52.962;5.790;2023-12-28T15:51:41;10.60;;;2.10;;
62256;SDS011;48240;52.962;5.790;2023-12-28T15:54:07;9.27;;;2.10;;
62256;SDS011;48240;52.962;5.790;2023-12-28T15:56:33;7.80;;;1.92;;
62256;SDS011;48240;52.962;5.790;2023-12-28T15:58:59;9.00;;;1.92;;
62256;SDS011;48240;52.962;5.790;2023-12-28T16:01:25;9.98;;;2.40;;
62256;SDS011;48240;52.962;5.790;2023-12-28T16:03:51;12.00;;;2.05;;
62256;SDS011;48240;52.962;5.790;2023-12-28T16:06:17;10.48;;;2.30;;
62256;SDS011;48240;52.962;5.790;2023-12-28T16:08:43;33.78;;;5.53;;
62256;SDS011;48240;52.962;5.790;2023-12-28T16:11:09;106.05;;;21.52;;
62256;SDS011;48240;52.962;5.790;2023-12-28T16:13:35;186.40;;;34.55;;
62256;SDS011;48240;52.962;5.790;2023-12-28T16:16:02;118.07;;;23.33;;
62256;SDS011;48240;52.962;5.790;2023-12-28T16:18:29;97.93;;;22.45;;
62256;SDS011;48240;52.962;5.790;2023-12-28T16:20:55;106.07;;;21.05;;
62256;SDS011;48240;52.962;5.790;2023-12-28T16:23:21;90.63;;;18.60;;
62256;SDS011;48240;52.962;5.790;2023-12-28T16:25:48;83.97;;;17.90;;
62256;SDS011;48240;52.962;5.790;2023-12-28T16:28:14;77.93;;;16.95;;
62256;SDS011;48240;52.962;5.790;2023-12-28T16:30:40;68.18;;;15.40;;
62256;SDS011;48240;52.962;5.790;2023-12-28T16:33:06;74.88;;;15.77;;
62256;SDS011;48240;52.962;5.790;2023-12-28T16:35:32;65.85;;;14.30;;
62256;SDS011;48240;52.962;5.790;2023-12-28T16:37:58;55.65;;;14.27;;
62256;SDS011;48240;52.962;5.790;2023-12-28T16:40:24;62.58;;;12.85;;
62256;SDS011;48240;52.962;5.790;2023-12-28T16:42:50;48.33;;;12.38;;
62256;SDS011;48240;52.962;5.790;2023-12-28T16:45:16;43.30;;;11.15;;
62256;SDS011;48240;52.962;5.790;2023-12-28T16:47:42;46.67;;;9.75;;
62256;SDS011;48240;52.962;5.790;2023-12-28T16:50:09;43.30;;;9.23;;
62256;SDS011;48240;52.962;5.790;2023-12-28T16:52:35;39.78;;;9.07;;
62256;SDS011;48240;52.962;5.790;2023-12-28T16:55:01;39.88;;;9.85;;
62256;SDS011;48240;52.962;5.790;2023-12-28T16:57:27;37.03;;;9.32;;
62256;SDS011;48240;52.962;5.790;2023-12-28T16:59:53;41.78;;;8.38;;
62256;SDS011;48240;52.962;5.790;2023-12-28T17:02:19;36.03;;;8.32;;
62256;SDS011;48240;52.962;5.790;2023-12-28T17:04:51;30.33;;;7.05;;
62256;SDS011;48240;52.962;5.790;2023-12-28T17:07:17;29.25;;;7.20;;
62256;SDS011;48240;52.962;5.790;2023-12-28T17:09:44;25.48;;;6.47;;
62256;SDS011;48240;52.962;5.790;2023-12-28T17:12:12;27.27;;;6.03;;
62256;SDS011;48240;52.962;5.790;2023-12-28T17:14:39;28.00;;;5.75;;
62256;SDS011;48240;52.962;5.790;2023-12-28T17:17:05;23.98;;;6.07;;
62256;SDS011;48240;52.962;5.790;2023-12-28T17:19:32;23.33;;;5.65;;
62256;SDS011;48240;52.962;5.790;2023-12-28T17:22:00;26.80;;;5.68;;
62256;SDS011;48240;52.962;5.790;2023-12-28T17:24:29;23.27;;;5.47;;
62256;SDS011;48240;52.962;5.790;2023-12-28T17:26:58;22.95;;;5.30;;
62256;SDS011;48240;52.962;5.790;2023-12-28T17:29:27;25.42;;;5.75;;
62256;SDS011;48240;52.962;5.790;2023-12-28T17:31:55;21.27;;;5.13;;
62256;SDS011;48240;52.962;5.790;2023-12-28T17:34:23;18.65;;;4.13;;
62256;SDS011;48240;52.962;5.790;2023-12-28T17:36:50;18.08;;;4.75;;
62256;SDS011;48240;52.962;5.790;2023-12-28T17:39:16;20.05;;;3.90;;
62256;SDS011;48240;52.962;5.790;2023-12-28T17:41:42;18.10;;;3.88;;
62256;SDS011;48240;52.962;5.790;2023-12-28T17:44:18;17.05;;;3.72;;
62256;SDS011;48240;52.962;5.790;2023-12-28T17:46:53;15.30;;;3.63;;
62256;SDS011;48240;52.962;5.790;2023-12-28T17:49:28;20.80;;;4.00;;
62256;SDS011;48240;52.962;5.790;2023-12-28T17:51:55;16.23;;;3.33;;
62256;SDS011;48240;52.962;5.790;2023-12-28T17:54:22;14.30;;;3.45;;
62256;SDS011;48240;52.962;5.790;2023-12-28T17:56:50;15.52;;;4.22;;
62256;SDS011;48240;52.962;5.790;2023-12-28T17:59:16;14.57;;;3.50;;
62256;SDS011;48240;52.962;5.790;2023-12-28T18:01:42;15.82;;;3.47;;
62256;SDS011;48240;52.962;5.790;2023-12-28T18:04:08;10.98;;;2.88;;
62256;SDS011;48240;52.962;5.790;2023-12-28T18:06:34;14.05;;;3.17;;
62256;SDS011;48240;52.962;5.790;2023-12-28T18:09:00;13.05;;;2.95;;
62256;SDS011;48240;52.962;5.790;2023-12-28T18:11:26;12.10;;;2.95;;
62256;SDS011;48240;52.962;5.790;2023-12-28T18:13:53;12.57;;;2.80;;
62256;SDS011;48240;52.962;5.790;2023-12-28T18:16:19;9.63;;;2.60;;
62256;SDS011;48240;52.962;5.790;2023-12-28T18:18:47;12.52;;;2.60;;
62256;SDS011;48240;52.962;5.790;2023-12-28T18:21:13;10.82;;;2.88;;
62256;SDS011;48240;52.962;5.790;2023-12-28T18:23:39;12.07;;;2.38;;
62256;SDS011;48240;52.962;5.790;2023-12-28T18:26:06;11.35;;;2.60;;
62256;SDS011;48240;52.962;5.790;2023-12-28T18:28:32;11.63;;;3.03;;
62256;SDS011;48240;52.962;5.790;2023-12-28T18:30:58;13.15;;;2.65;;
62256;SDS011;48240;52.962;5.790;2023-12-28T18:33:24;13.98;;;2.63;;
62256;SDS011;48240;52.962;5.790;2023-12-28T18:35:51;9.52;;;2.47;;
62256;SDS011;48240;52.962;5.790;2023-12-28T18:38:18;8.93;;;2.22;;
62256;SDS011;48240;52.962;5.790;2023-12-28T18:40:44;11.93;;;2.53;;
62256;SDS011;48240;52.962;5.790;2023-12-28T18:43:14;9.98;;;2.40;;
62256;SDS011;48240;52.962;5.790;2023-12-28T18:45:41;11.80;;;2.47;;
62256;SDS011;48240;52.962;5.790;2023-12-28T18:48:10;9.85;;;1.88;;
62256;SDS011;48240;52.962;5.790;2023-12-28T18:50:40;8.52;;;2.33;;
62256;SDS011;48240;52.962;5.790;2023-12-28T18:53:07;16.10;;;2.25;;
62256;SDS011;48240;52.962;5.790;2023-12-28T18:55:36;10.55;;;2.13;;
62256;SDS011;48240;52.962;5.790;2023-12-28T18:58:05;8.88;;;2.30;;
62256;SDS011;48240;52.962;5.790;2023-12-28T19:00:35;10.60;;;2.10;;
62256;SDS011;48240;52.962;5.790;2023-12-28T19:03:02;8.30;;;2.00;;
62256;SDS011;48240;52.962;5.790;2023-12-28T19:05:28;9.27;;;1.70;;
62256;SDS011;48240;52.962;5.790;2023-12-28T19:07:54;10.48;;;2.15;;
62256;SDS011;48240;52.962;5.790;2023-12-28T19:10:20;11.15;;;2.17;;
62256;SDS011;48240;52.962;5.790;2023-12-28T19:12:46;10.27;;;2.28;;
62256;SDS011;48240;52.962;5.790;2023-12-28T19:15:12;8.57;;;2.00;;
62256;SDS011;48240;52.962;5.790;2023-12-28T19:17:39;11.95;;;2.13;;
62256;SDS011;48240;52.962;5.790;2023-12-28T19:20:06;11.20;;;2.13;;
62256;SDS011;48240;52.962;5.790;2023-12-28T19:22:33;9.02;;;1.80;;
62256;SDS011;48240;52.962;5.790;2023-12-28T19:24:59;9.18;;;2.20;;
62256;SDS011;48240;52.962;5.790;2023-12-28T19:27:25;11.55;;;1.95;;
62256;SDS011;48240;52.962;5.790;2023-12-28T19:29:55;8.68;;;2.08;;